»·PEaware :: WAT234 KDEN-KPHX

WAT234 :: KDEN-KPHX

FLIGHT INFORMATION

Flight Status: Arrived
Operator:
Walker Air Transport
More flights by this operator :: More flights under this callsign
Pilot: Eduardo Elias G. (24838)
Aircraft: BOEING 737-800
(B738)
More flights by this aircraft type
Origin: KDEN Denver Intl
United States
Destination: KPHX Phoenix Sky Harbor Intl
United States
More flights between these airports :: More routes between these airports
Route: SMMUR1 DAAYE GUP EAGUL6
File this flight plan on PilotEdge
Remarks:
Altitude:
(Current/Filed)
36,000ft
Speed:
(Current/Filed)
456kts
Departed: 23-Aug-20 02:13 PM
Arrived: 23-Aug-20 03:45 PM
Distance/Time
Traveled:
522nm/1:32
Distance/Time
To Go:
Arrived

Flight Plot

Page will automatically refresh every two minutes.

Flight plan parsing failed; only flown route is shown


Map Options




Map Legend


Flown Route
Filed Route
Departure Airport
Arrival Airport
Navaid (VOR, NDB)
Fix

Horizontal Profiles

Position Reports

Time Latitude Longitude Heading Altitude Ground
Speed
23-Aug-20 12:55 39.862608 -104.674785 9 5439ft 0kts
23-Aug-20 12:56 39.862608 -104.674785 9 5439ft 0kts
23-Aug-20 12:57 39.862608 -104.674785 9 5439ft 0kts
23-Aug-20 12:58 39.862608 -104.674785 9 5439ft 0kts
23-Aug-20 12:59 39.862608 -104.674785 9 5439ft 0kts
23-Aug-20 13:00 39.862608 -104.674785 9 5439ft 0kts
23-Aug-20 13:01 39.862608 -104.674785 9 5439ft 0kts
23-Aug-20 13:02 39.862608 -104.674785 9 5439ft 0kts
23-Aug-20 13:03 39.862608 -104.674785 9 5439ft 0kts
23-Aug-20 13:04 39.862608 -104.674785 9 5439ft 0kts
23-Aug-20 13:05 39.862608 -104.674785 9 5439ft 0kts
23-Aug-20 13:06 39.862608 -104.674785 9 5439ft 0kts
23-Aug-20 13:07 39.862608 -104.674785 9 5439ft 0kts
23-Aug-20 13:08 39.862608 -104.674785 9 5439ft 0kts
23-Aug-20 13:09 39.862608 -104.674785 9 5439ft 0kts
23-Aug-20 13:10 39.862608 -104.674785 9 5439ft 0kts
23-Aug-20 13:11 39.862608 -104.674785 9 5439ft 0kts
23-Aug-20 13:12 39.862608 -104.674785 9 5439ft 0kts
23-Aug-20 13:13 39.862608 -104.674785 9 5439ft 0kts
23-Aug-20 13:14 39.862608 -104.674785 9 5439ft 0kts
23-Aug-20 13:15 39.862608 -104.674785 9 5439ft 0kts
23-Aug-20 13:16 39.862608 -104.674785 9 5439ft 0kts
23-Aug-20 13:17 39.862608 -104.674785 9 5439ft 0kts
23-Aug-20 13:18 39.862608 -104.674785 9 5439ft 0kts
23-Aug-20 13:19 39.862608 -104.674785 9 5439ft 0kts
23-Aug-20 13:20 39.862608 -104.674785 9 5439ft 0kts
23-Aug-20 13:21 39.862608 -104.674785 9 5439ft 0kts
23-Aug-20 13:22 39.862608 -104.674785 9 5439ft 0kts
23-Aug-20 13:23 39.862608 -104.674785 9 5439ft 0kts
23-Aug-20 13:24 39.862608 -104.674785 9 5439ft 0kts
23-Aug-20 13:25 39.862608 -104.674785 9 5439ft 0kts
23-Aug-20 13:26 39.862608 -104.674785 9 5439ft 0kts
23-Aug-20 13:27 39.862608 -104.674785 9 5439ft 0kts
23-Aug-20 13:28 39.862608 -104.674785 9 5439ft 0kts
23-Aug-20 13:29 39.862608 -104.674785 9 5439ft 0kts
23-Aug-20 13:30 39.862608 -104.674785 9 5439ft 0kts
23-Aug-20 13:31 39.862608 -104.674785 9 5439ft 0kts
23-Aug-20 13:32 39.862608 -104.674785 9 5439ft 0kts
23-Aug-20 13:33 39.862608 -104.674785 9 5439ft 0kts
23-Aug-20 13:34 39.862608 -104.674785 9 5439ft 0kts
23-Aug-20 13:35 39.862608 -104.674785 9 5439ft 0kts
23-Aug-20 13:36 39.862608 -104.674785 9 5439ft 0kts
23-Aug-20 13:37 39.862608 -104.674785 9 5439ft 0kts
23-Aug-20 13:38 39.862608 -104.674785 9 5439ft 0kts
23-Aug-20 13:40 39.862608 -104.674785 9 5439ft 0kts
23-Aug-20 13:41 39.862608 -104.674785 9 5439ft 0kts
23-Aug-20 13:42 39.862608 -104.674785 9 5439ft 0kts
23-Aug-20 13:43 39.862608 -104.674785 9 5439ft 0kts
23-Aug-20 13:44 39.862608 -104.674785 9 5439ft 0kts
23-Aug-20 13:45 39.862608 -104.674785 9 5439ft 0kts
23-Aug-20 13:46 39.862608 -104.674785 9 5439ft 0kts
23-Aug-20 13:47 39.862608 -104.674785 9 5439ft 0kts
23-Aug-20 13:48 39.862608 -104.674785 9 5439ft 0kts
23-Aug-20 13:49 39.862608 -104.674785 9 5439ft 0kts
23-Aug-20 13:50 39.862608 -104.674785 9 5439ft 0kts
23-Aug-20 13:51 39.862608 -104.674785 9 5439ft 0kts
23-Aug-20 13:52 39.862608 -104.674785 9 5439ft 0kts
23-Aug-20 13:53 39.862608 -104.674785 9 5439ft 0kts
23-Aug-20 13:54 39.862608 -104.674785 9 5439ft 0kts
23-Aug-20 13:55 39.862164 -104.674842 358 5439ft 2kts
23-Aug-20 13:55 39.861616 -104.674672 325 5439ft 0kts
23-Aug-20 13:57 39.861616 -104.674672 325 5439ft 0kts
23-Aug-20 13:58 39.861616 -104.674672 325 5439ft 0kts
23-Aug-20 13:58 39.861751 -104.674796 321 5439ft 5kts
23-Aug-20 13:59 39.861412 -104.677357 267 5439ft 8kts
23-Aug-20 14:01 39.861445 -104.682848 269 5439ft 13kts
23-Aug-20 14:01 39.863067 -104.685088 358 5439ft 14kts
23-Aug-20 14:02 39.867407 -104.685006 1 5439ft 14kts
23-Aug-20 14:03 39.871060 -104.684988 0 5439ft 13kts
23-Aug-20 14:04 39.875066 -104.684941 0 5439ft 15kts
23-Aug-20 14:05 39.879211 -104.684893 0 5439ft 13kts
23-Aug-20 14:06 39.883671 -104.684850 0 5439ft 18kts
23-Aug-20 14:07 39.889127 -104.684766 0 5439ft 20kts
23-Aug-20 14:08 39.894928 -104.684700 359 5439ft 19kts
23-Aug-20 14:09 39.897095 -104.685238 273 5439ft 0kts
23-Aug-20 14:10 39.897095 -104.685240 273 5439ft 0kts
23-Aug-20 14:11 39.897095 -104.685242 273 5439ft 0kts
23-Aug-20 14:12 39.893695 -104.686831 182 5439ft 70kts
23-Aug-20 14:13 39.850077 -104.689040 182 6589ft 186kts
23-Aug-20 14:14 39.792041 -104.693342 175 7884ft 245kts
23-Aug-20 14:15 39.716549 -104.677791 169 9664ft 291kts
23-Aug-20 14:16 39.633493 -104.671203 197 10086ft 323kts
23-Aug-20 14:17 39.554107 -104.726559 211 12922ft 330kts
23-Aug-20 14:18 39.474851 -104.792259 213 15434ft 346kts
23-Aug-20 14:19 39.391790 -104.860533 213 17905ft 361kts
23-Aug-20 14:20 39.305072 -104.930941 214 20259ft 374kts
23-Aug-20 14:21 39.215501 -105.003438 214 22412ft 386kts
23-Aug-20 14:22 39.121964 -105.076797 209 24346ft 399kts
23-Aug-20 14:23 39.020771 -105.140956 208 26138ft 410kts
23-Aug-20 14:24 38.917572 -105.207146 208 27755ft 421kts
23-Aug-20 14:25 38.811476 -105.275537 209 29240ft 430kts
23-Aug-20 14:26 38.703210 -105.345403 209 30556ft 441kts
23-Aug-20 14:27 38.592353 -105.416372 209 31717ft 451kts
23-Aug-20 14:28 38.478902 -105.488574 209 32741ft 460kts
23-Aug-20 14:29 38.362849 -105.561345 208 33712ft 468kts
23-Aug-20 14:30 38.245230 -105.634578 208 34702ft 471kts
23-Aug-20 14:31 38.127509 -105.707337 208 35958ft 467kts
23-Aug-20 14:32 38.012819 -105.784898 218 36397ft 466kts
23-Aug-20 14:33 37.918625 -105.896649 227 36411ft 471kts
23-Aug-20 14:34 37.824931 -106.015927 227 36423ft 478kts
23-Aug-20 14:35 37.731238 -106.135187 227 36449ft 478kts
23-Aug-20 14:36 37.637423 -106.254387 227 36505ft 478kts
23-Aug-20 14:37 37.543472 -106.372905 227 36559ft 478kts
23-Aug-20 14:38 37.449323 -106.491157 227 36645ft 478kts
23-Aug-20 14:39 37.355078 -106.609079 227 36701ft 478kts
23-Aug-20 14:40 37.260515 -106.726948 227 36707ft 478kts
23-Aug-20 14:41 37.165746 -106.844634 227 36713ft 479kts
23-Aug-20 14:42 37.070975 -106.961883 227 36547ft 479kts
23-Aug-20 14:43 36.976150 -107.078766 227 36483ft 479kts
23-Aug-20 14:44 36.881025 -107.195584 227 36366ft 480kts
23-Aug-20 14:45 36.785331 -107.312672 227 36318ft 481kts
23-Aug-20 14:46 36.689626 -107.429335 227 36324ft 481kts
23-Aug-20 14:47 36.593948 -107.545540 227 36323ft 482kts
23-Aug-20 14:48 36.497538 -107.662207 226 36309ft 483kts
23-Aug-20 14:49 36.401206 -107.778352 226 36241ft 483kts
23-Aug-20 14:50 36.304403 -107.894642 226 36209ft 484kts
23-Aug-20 14:51 36.207758 -108.010320 226 36220ft 484kts
23-Aug-20 14:52 36.110533 -108.126272 226 36230ft 484kts
23-Aug-20 14:53 36.013580 -108.241484 226 36241ft 484kts
23-Aug-20 14:54 35.916347 -108.356619 226 36246ft 484kts
23-Aug-20 14:55 35.818976 -108.471500 226 36257ft 484kts
23-Aug-20 14:56 35.721624 -108.585956 226 36264ft 484kts
23-Aug-20 14:57 35.624315 -108.700315 225 36273ft 483kts
23-Aug-20 14:58 35.527082 -108.813574 225 36273ft 483kts
23-Aug-20 14:59 35.431530 -108.929557 229 36276ft 481kts
23-Aug-20 15:00 35.339944 -109.048593 228 36283ft 481kts
23-Aug-20 15:01 35.247718 -109.167269 228 36287ft 480kts
23-Aug-20 15:02 35.155693 -109.286180 228 36271ft 480kts
23-Aug-20 15:03 35.063342 -109.404520 228 36251ft 480kts
23-Aug-20 15:04 34.971365 -109.522269 228 36223ft 481kts
23-Aug-20 15:05 34.878682 -109.639868 228 36210ft 481kts
23-Aug-20 15:06 34.786121 -109.757620 228 36208ft 481kts
23-Aug-20 15:07 34.701069 -109.880846 241 36213ft 471kts
23-Aug-20 15:08 34.644904 -110.024925 247 35402ft 470kts
23-Aug-20 15:09 34.591908 -110.168240 247 33227ft 458kts
23-Aug-20 15:10 34.539732 -110.306790 246 31231ft 444kts
23-Aug-20 15:11 34.488956 -110.441258 246 29314ft 434kts
23-Aug-20 15:12 34.439395 -110.572649 245 27436ft 422kts
23-Aug-20 15:13 34.390738 -110.700103 244 25593ft 412kts
23-Aug-20 15:14 34.335948 -110.818313 230 24254ft 389kts
23-Aug-20 15:15 34.264674 -110.911686 225 22445ft 371kts
23-Aug-20 15:16 34.195589 -111.000553 225 20617ft 354kts
23-Aug-20 15:17 34.129723 -111.085291 225 18972ft 337kts
23-Aug-20 15:18 34.066659 -111.166629 224 17204ft 328kts
23-Aug-20 15:19 34.004753 -111.245930 224 15509ft 319kts
23-Aug-20 15:20 33.945106 -111.322050 225 13957ft 308kts
23-Aug-20 15:21 33.887286 -111.395697 224 12461ft 297kts
23-Aug-20 15:22 33.822120 -111.454776 214 10902ft 291kts
23-Aug-20 15:23 33.756722 -111.510937 215 9340ft 286kts
23-Aug-20 15:24 33.694464 -111.564346 215 8666ft 281kts
23-Aug-20 15:25 33.633702 -111.616304 214 7983ft 256kts
23-Aug-20 15:26 33.579083 -111.661902 214 7212ft 228kts
23-Aug-20 15:27 33.530629 -111.702575 215 6209ft 203kts
23-Aug-20 15:28 33.484698 -111.741405 215 4871ft 199kts
23-Aug-20 15:29 33.451175 -111.789078 240 4236ft 185kts
23-Aug-20 15:30 33.440523 -111.847892 269 3470ft 183kts
23-Aug-20 15:31 33.440736 -111.905186 269 2567ft 162kts
23-Aug-20 15:32 33.440827 -111.958116 268 1745ft 158kts
23-Aug-20 15:33 33.440948 -112.010560 274 1323ft 161kts
23-Aug-20 15:34 33.450347 -112.061827 287 3921ft 180kts
23-Aug-20 15:35 33.488416 -112.092293 358 4551ft 194kts
23-Aug-20 15:36 33.513514 -112.046740 89 4022ft 186kts
23-Aug-20 15:37 33.513881 -111.983415 90 4022ft 190kts
23-Aug-20 15:39 33.514364 -111.919488 90 3672ft 194kts
23-Aug-20 15:40 33.504229 -111.861812 145 2996ft 176kts
23-Aug-20 15:41 33.460864 -111.844590 213 2966ft 171kts
23-Aug-20 15:42 33.440519 -111.893805 268 2753ft 171kts
23-Aug-20 15:43 33.440583 -111.948016 269 1862ft 157kts
23-Aug-20 15:44 33.440779 -111.999095 271 1146ft 146kts
23-Aug-20 15:45 33.439936 -112.017068 159 1143ft 8kts
23-Aug-20 15:46 33.439843 -112.016993 135 1143ft 0kts
23-Aug-20 15:47 33.439776 -112.016988 203 1143ft 0kts
23-Aug-20 15:48 33.438984 -112.016333 90 1143ft 15kts
23-Aug-20 15:49 33.438996 -112.010514 90 1143ft 16kts
23-Aug-20 15:50 33.439001 -112.004792 91 1143ft 20kts
23-Aug-20 15:51 33.439001 -111.998596 89 1143ft 16kts
23-Aug-20 15:52 33.438404 -111.997033 179 1143ft 2kts
23-Aug-20 15:53 33.438324 -111.997031 179 1143ft 0kts
23-Aug-20 15:53 33.438324 -111.997031 179 1143ft 0kts
23-Aug-20 15:55 33.438324 -111.997031 179 1143ft 0kts
23-Aug-20 15:56 33.438324 -111.997031 179 1143ft 0kts
23-Aug-20 15:56 33.438324 -111.997031 179 1143ft 0kts
23-Aug-20 15:58 33.438324 -111.997031 179 1143ft 0kts

Navigation Log

Ident Type
Flight plan parsing failed, navigation log unavailable